Coppock, Iowa
Current Conditions -  °F | °C
As of 4:55 AM on Sunday 23 Nov 2014 (Local Time) from KAWG Reporting Station
Overcast Overcast  
Wind Chill: 50°   Ceiling: 2100
Heat Index: 50°   Visibility: 10mi
Dew Point: 50°   Wind: 8mph
Humidity: 100%   Direction: 160°SSE
Pressure: 29.64"   Gusts: NA
Location:  41.1406°N, 91.6635°W
Report Text: KAWG 231055Z AUTO 16007KT 10SM SCT014 OVC021 10/10 A2964 RMK AO2
Loading
Personal Weather Stations






























Interactive Weather Map New forecast layout! Learn more

10-Day Weather Forecast

Advertisements
Track Severe Weather on mobile